sensor_id;sensor_type;location;lat;lon;timestamp;pressure;altitude;pressure_sealevel;temperature;humidity
68873;BME280;55907;50.806;12.882;2023-01-13T00:01:24;966.4;;;9.4;74.8
68873;BME280;55907;50.806;12.882;2023-01-13T00:07:26;966.3;;;9.4;74.7
68873;BME280;55907;50.806;12.882;2023-01-13T00:10:27;966.2;;;9.3;74.9
68873;BME280;55907;50.806;12.882;2023-01-13T00:13:29;966.2;;;9.3;74.9
68873;BME280;55907;50.806;12.882;2023-01-13T00:16:30;966.1;;;9.3;74.7
68873;BME280;55907;50.806;12.882;2023-01-13T00:19:32;966.1;;;9.3;74.6
68873;BME280;55907;50.806;12.882;2023-01-13T00:22:34;966.1;;;9.4;74.3
68873;BME280;55907;50.806;12.882;2023-01-13T00:25:35;966.2;;;9.4;74.0
68873;BME280;55907;50.806;12.882;2023-01-13T00:28:36;966.1;;;9.4;73.9
68873;BME280;55907;50.806;12.882;2023-01-13T00:31:38;966.0;;;9.4;73.7
68873;BME280;55907;50.806;12.882;2023-01-13T00:37:41;965.9;;;9.4;73.1
68873;BME280;55907;50.806;12.882;2023-01-13T00:40:42;965.9;;;9.4;72.9
68873;BME280;55907;50.806;12.882;2023-01-13T00:43:44;965.9;;;9.5;72.8
68873;BME280;55907;50.806;12.882;2023-01-13T00:46:45;965.7;;;9.6;72.5
68873;BME280;55907;50.806;12.882;2023-01-13T00:49:47;965.9;;;9.5;72.7
68873;BME280;55907;50.806;12.882;2023-01-13T00:52:48;965.8;;;9.5;72.6
68873;BME280;55907;50.806;12.882;2023-01-13T00:55:58;965.8;;;9.5;72.7
68873;BME280;55907;50.806;12.882;2023-01-13T00:58:52;965.7;;;9.5;72.8
68873;BME280;55907;50.806;12.882;2023-01-13T01:01:53;965.8;;;9.5;72.7
68873;BME280;55907;50.806;12.882;2023-01-13T01:04:54;965.8;;;9.5;72.9
68873;BME280;55907;50.806;12.882;2023-01-13T01:07:56;965.8;;;9.5;73.4
68873;BME280;55907;50.806;12.882;2023-01-13T01:11:01;965.9;;;9.4;73.8
68873;BME280;55907;50.806;12.882;2023-01-13T01:14:01;965.9;;;9.4;74.2
68873;BME280;55907;50.806;12.882;2023-01-13T01:17:00;965.9;;;9.4;74.7
68873;BME280;55907;50.806;12.882;2023-01-13T01:20:02;965.9;;;9.5;74.5
68873;BME280;55907;50.806;12.882;2023-01-13T01:23:03;966.0;;;9.4;75.2
68873;BME280;55907;50.806;12.882;2023-01-13T01:26:07;966.0;;;9.4;75.3
68873;BME280;55907;50.806;12.882;2023-01-13T01:32:08;966.0;;;9.3;75.8
68873;BME280;55907;50.806;12.882;2023-01-13T01:35:09;966.1;;;9.2;76.0
68873;BME280;55907;50.806;12.882;2023-01-13T01:38:11;966.0;;;9.2;75.7
68873;BME280;55907;50.806;12.882;2023-01-13T01:41:14;966.0;;;9.2;75.6
68873;BME280;55907;50.806;12.882;2023-01-13T01:47:17;966.0;;;9.2;75.2
68873;BME280;55907;50.806;12.882;2023-01-13T01:50:18;965.8;;;9.3;74.8
68873;BME280;55907;50.806;12.882;2023-01-13T01:53:20;965.9;;;9.3;74.8
68873;BME280;55907;50.806;12.882;2023-01-13T01:56:20;965.9;;;9.3;74.7
68873;BME280;55907;50.806;12.882;2023-01-13T01:59:22;965.7;;;9.3;74.6
68873;BME280;55907;50.806;12.882;2023-01-13T02:02:23;965.8;;;9.3;74.6
68873;BME280;55907;50.806;12.882;2023-01-13T02:05:24;965.7;;;9.3;74.6
68873;BME280;55907;50.806;12.882;2023-01-13T02:08:26;965.8;;;9.4;74.5
68873;BME280;55907;50.806;12.882;2023-01-13T02:11:30;965.6;;;9.3;74.6
68873;BME280;55907;50.806;12.882;2023-01-13T02:14:29;965.7;;;9.3;74.7
68873;BME280;55907;50.806;12.882;2023-01-13T02:17:47;965.6;;;9.4;74.6
68873;BME280;55907;50.806;12.882;2023-01-13T02:20:51;965.6;;;9.3;74.7
68873;BME280;55907;50.806;12.882;2023-01-13T02:23:53;965.5;;;9.3;74.7
68873;BME280;55907;50.806;12.882;2023-01-13T02:29:48;965.4;;;9.3;74.8
68873;BME280;55907;50.806;12.882;2023-01-13T02:32:43;965.4;;;9.3;75.0
68873;BME280;55907;50.806;12.882;2023-01-13T02:35:46;965.5;;;9.3;74.7
68873;BME280;55907;50.806;12.882;2023-01-13T02:38:48;965.3;;;9.4;74.7
68873;BME280;55907;50.806;12.882;2023-01-13T02:41:49;965.5;;;9.4;74.6
68873;BME280;55907;50.806;12.882;2023-01-13T02:44:46;965.4;;;9.4;74.6
68873;BME280;55907;50.806;12.882;2023-01-13T02:47:47;965.4;;;9.4;74.7
68873;BME280;55907;50.806;12.882;2023-01-13T02:50:52;965.4;;;9.4;74.7
68873;BME280;55907;50.806;12.882;2023-01-13T02:53:52;965.3;;;9.5;74.5
68873;BME280;55907;50.806;12.882;2023-01-13T02:56:53;965.4;;;9.5;74.5
68873;BME280;55907;50.806;12.882;2023-01-13T02:59:53;965.3;;;9.4;74.9
68873;BME280;55907;50.806;12.882;2023-01-13T03:02:53;965.3;;;9.5;74.8
68873;BME280;55907;50.806;12.882;2023-01-13T03:09:01;965.3;;;9.5;75.0
68873;BME280;55907;50.806;12.882;2023-01-13T03:12:07;965.2;;;9.5;74.9
68873;BME280;55907;50.806;12.882;2023-01-13T03:15:04;965.2;;;9.5;75.0
68873;BME280;55907;50.806;12.882;2023-01-13T03:18:06;965.2;;;9.5;75.3
68873;BME280;55907;50.806;12.882;2023-01-13T03:21:05;965.2;;;9.4;75.6
68873;BME280;55907;50.806;12.882;2023-01-13T03:24:06;965.3;;;9.5;75.5
68873;BME280;55907;50.806;12.882;2023-01-13T03:27:07;965.2;;;9.5;75.6
68873;BME280;55907;50.806;12.882;2023-01-13T03:30:10;965.2;;;9.5;75.4
68873;BME280;55907;50.806;12.882;2023-01-13T03:33:11;965.1;;;9.5;75.5
68873;BME280;55907;50.806;12.882;2023-01-13T03:36:10;965.1;;;9.5;75.4
68873;BME280;55907;50.806;12.882;2023-01-13T03:39:14;965.1;;;9.5;75.5
68873;BME280;55907;50.806;12.882;2023-01-13T03:42:15;965.0;;;9.4;75.6
68873;BME280;55907;50.806;12.882;2023-01-13T03:45:16;965.0;;;9.5;75.6
68873;BME280;55907;50.806;12.882;2023-01-13T03:48:17;965.0;;;9.4;75.6
68873;BME280;55907;50.806;12.882;2023-01-13T03:54:20;965.1;;;9.4;75.6
68873;BME280;55907;50.806;12.882;2023-01-13T03:57:23;965.1;;;9.4;75.5
68873;BME280;55907;50.806;12.882;2023-01-13T04:00:23;965.0;;;9.5;75.4
68873;BME280;55907;50.806;12.882;2023-01-13T04:03:25;965.0;;;9.5;75.6
68873;BME280;55907;50.806;12.882;2023-01-13T04:06:30;965.0;;;9.4;75.6
68873;BME280;55907;50.806;12.882;2023-01-13T04:12:28;965.0;;;9.4;75.6
68873;BME280;55907;50.806;12.882;2023-01-13T04:15:32;965.2;;;9.4;75.4
68873;BME280;55907;50.806;12.882;2023-01-13T04:18:30;965.1;;;9.4;75.5
68873;BME280;55907;50.806;12.882;2023-01-13T04:21:32;965.1;;;9.3;75.8
68873;BME280;55907;50.806;12.882;2023-01-13T04:24:33;965.1;;;9.3;75.8
68873;BME280;55907;50.806;12.882;2023-01-13T04:27:35;965.1;;;9.4;75.6
68873;BME280;55907;50.806;12.882;2023-01-13T04:30:37;965.1;;;9.4;75.6
68873;BME280;55907;50.806;12.882;2023-01-13T04:33:37;965.2;;;9.4;75.7
68873;BME280;55907;50.806;12.882;2023-01-13T04:36:39;965.1;;;9.4;75.7
68873;BME280;55907;50.806;12.882;2023-01-13T04:39:41;965.2;;;9.3;75.9
68873;BME280;55907;50.806;12.882;2023-01-13T04:42:42;965.1;;;9.3;75.9
68873;BME280;55907;50.806;12.882;2023-01-13T04:45:44;965.1;;;9.4;75.8
68873;BME280;55907;50.806;12.882;2023-01-13T04:54:48;964.9;;;9.4;75.3
68873;BME280;55907;50.806;12.882;2023-01-13T04:57:50;964.9;;;9.4;75.4
68873;BME280;55907;50.806;12.882;2023-01-13T05:00:51;965.0;;;9.4;75.5
68873;BME280;55907;50.806;12.882;2023-01-13T05:03:53;964.9;;;9.3;75.7
68873;BME280;55907;50.806;12.882;2023-01-13T05:06:54;965.0;;;9.2;76.1
68873;BME280;55907;50.806;12.882;2023-01-13T05:09:55;965.0;;;9.3;76.0
68873;BME280;55907;50.806;12.882;2023-01-13T05:12:57;965.0;;;9.3;76.3
68873;BME280;55907;50.806;12.882;2023-01-13T05:15:59;965.0;;;9.2;76.6
68873;BME280;55907;50.806;12.882;2023-01-13T05:19:00;965.0;;;9.2;76.8
68873;BME280;55907;50.806;12.882;2023-01-13T05:22:02;964.9;;;9.3;76.5
68873;BME280;55907;50.806;12.882;2023-01-13T05:25:03;964.9;;;9.3;76.4
68873;BME280;55907;50.806;12.882;2023-01-13T05:28:06;964.9;;;9.4;76.5
68873;BME280;55907;50.806;12.882;2023-01-13T05:31:06;965.0;;;9.4;76.3
68873;BME280;55907;50.806;12.882;2023-01-13T05:34:07;965.0;;;9.4;76.2
68873;BME280;55907;50.806;12.882;2023-01-13T05:37:09;964.9;;;9.4;76.0
68873;BME280;55907;50.806;12.882;2023-01-13T05:40:12;965.0;;;9.4;75.8
68873;BME280;55907;50.806;12.882;2023-01-13T05:43:14;965.0;;;9.4;75.8
68873;BME280;55907;50.806;12.882;2023-01-13T05:46:13;965.0;;;9.4;76.0
68873;BME280;55907;50.806;12.882;2023-01-13T05:49:15;965.1;;;9.3;76.0
68873;BME280;55907;50.806;12.882;2023-01-13T05:52:16;965.1;;;9.3;75.8
68873;BME280;55907;50.806;12.882;2023-01-13T05:55:18;965.1;;;9.3;75.9
68873;BME280;55907;50.806;12.882;2023-01-13T05:58:21;965.1;;;9.3;75.8
68873;BME280;55907;50.806;12.882;2023-01-13T06:01:21;965.1;;;9.4;75.5
68873;BME280;55907;50.806;12.882;2023-01-13T06:04:22;965.0;;;9.3;75.7
68873;BME280;55907;50.806;12.882;2023-01-13T06:07:24;965.0;;;9.3;75.7
68873;BME280;55907;50.806;12.882;2023-01-13T06:10:27;965.0;;;9.4;75.5
68873;BME280;55907;50.806;12.882;2023-01-13T06:13:27;965.2;;;9.3;75.6
68873;BME280;55907;50.806;12.882;2023-01-13T06:16:28;965.2;;;9.3;75.7
68873;BME280;55907;50.806;12.882;2023-01-13T06:22:31;965.2;;;9.3;75.9
68873;BME280;55907;50.806;12.882;2023-01-13T06:25:39;965.3;;;9.3;75.9
68873;BME280;55907;50.806;12.882;2023-01-13T06:31:37;965.3;;;9.3;75.8
68873;BME280;55907;50.806;12.882;2023-01-13T06:32:25;965.2;;;9.4;75.6
68873;BME280;55907;50.806;12.882;2023-01-13T06:34:39;965.2;;;9.4;75.6
68873;BME280;55907;50.806;12.882;2023-01-13T06:37:40;965.2;;;9.3;75.6
68873;BME280;55907;50.806;12.882;2023-01-13T06:40:41;965.2;;;9.4;75.2
68873;BME280;55907;50.806;12.882;2023-01-13T06:43:42;965.3;;;9.4;75.2
68873;BME280;55907;50.806;12.882;2023-01-13T06:46:44;965.2;;;9.3;75.2
68873;BME280;55907;50.806;12.882;2023-01-13T06:49:45;965.2;;;9.4;75.0
68873;BME280;55907;50.806;12.882;2023-01-13T06:52:46;965.3;;;9.4;75.0
68873;BME280;55907;50.806;12.882;2023-01-13T06:58:50;965.1;;;9.4;74.8
68873;BME280;55907;50.806;12.882;2023-01-13T07:01:51;965.1;;;9.5;74.6
68873;BME280;55907;50.806;12.882;2023-01-13T07:07:54;965.0;;;9.5;74.4
68873;BME280;55907;50.806;12.882;2023-01-13T07:10:56;965.1;;;9.5;74.3
68873;BME280;55907;50.806;12.882;2023-01-13T07:13:57;965.1;;;9.5;74.1
68873;BME280;55907;50.806;12.882;2023-01-13T07:16:58;965.2;;;9.5;74.0
68873;BME280;55907;50.806;12.882;2023-01-13T07:20:00;965.2;;;9.6;73.9
68873;BME280;55907;50.806;12.882;2023-01-13T07:23:02;965.0;;;9.7;73.6
68873;BME280;55907;50.806;12.882;2023-01-13T07:26:03;965.1;;;9.7;73.4
68873;BME280;55907;50.806;12.882;2023-01-13T07:29:04;965.1;;;9.8;73.5
68873;BME280;55907;50.806;12.882;2023-01-13T07:32:06;965.2;;;9.7;73.5
68873;BME280;55907;50.806;12.882;2023-01-13T07:35:08;965.1;;;9.7;73.6
68873;BME280;55907;50.806;12.882;2023-01-13T07:38:09;965.1;;;9.8;73.4
68873;BME280;55907;50.806;12.882;2023-01-13T07:41:11;965.1;;;9.7;73.6
68873;BME280;55907;50.806;12.882;2023-01-13T07:44:12;965.1;;;9.7;73.8
68873;BME280;55907;50.806;12.882;2023-01-13T07:47:14;965.0;;;9.7;73.7
68873;BME280;55907;50.806;12.882;2023-01-13T07:53:17;965.1;;;9.7;73.9
68873;BME280;55907;50.806;12.882;2023-01-13T07:56:19;965.1;;;9.6;74.1
68873;BME280;55907;50.806;12.882;2023-01-13T07:59:20;965.1;;;9.6;74.2
68873;BME280;55907;50.806;12.882;2023-01-13T08:05:23;965.1;;;9.6;74.1
68873;BME280;55907;50.806;12.882;2023-01-13T08:08:24;965.0;;;9.6;74.2
68873;BME280;55907;50.806;12.882;2023-01-13T08:11:26;965.0;;;9.6;74.3
68873;BME280;55907;50.806;12.882;2023-01-13T08:17:29;965.0;;;9.6;74.2
68873;BME280;55907;50.806;12.882;2023-01-13T08:20:30;964.9;;;9.5;74.3
68873;BME280;55907;50.806;12.882;2023-01-13T08:23:32;965.1;;;9.5;74.6
68873;BME280;55907;50.806;12.882;2023-01-13T08:26:33;965.1;;;9.4;75.1
68873;BME280;55907;50.806;12.882;2023-01-13T08:29:35;965.0;;;9.5;75.2
68873;BME280;55907;50.806;12.882;2023-01-13T08:32:36;965.1;;;9.5;75.4
68873;BME280;55907;50.806;12.882;2023-01-13T08:35:39;965.0;;;9.6;74.4
68873;BME280;55907;50.806;12.882;2023-01-13T08:38:40;965.1;;;9.7;74.2
68873;BME280;55907;50.806;12.882;2023-01-13T08:41:42;965.1;;;9.7;74.1
68873;BME280;55907;50.806;12.882;2023-01-13T08:44:42;965.1;;;9.7;74.6
68873;BME280;55907;50.806;12.882;2023-01-13T08:47:44;965.0;;;9.7;75.1
68873;BME280;55907;50.806;12.882;2023-01-13T08:50:45;965.8;;;9.6;77.9
68873;BME280;55907;50.806;12.882;2023-01-13T08:53:47;966.0;;;8.9;80.2
68873;BME280;55907;50.806;12.882;2023-01-13T08:56:48;966.0;;;8.3;80.7
68873;BME280;55907;50.806;12.882;2023-01-13T08:59:50;966.1;;;7.9;81.7
68873;BME280;55907;50.806;12.882;2023-01-13T09:02:51;966.1;;;7.8;82.2
68873;BME280;55907;50.806;12.882;2023-01-13T09:05:53;966.2;;;7.8;82.5
68873;BME280;55907;50.806;12.882;2023-01-13T09:08:54;966.2;;;7.7;83.2
68873;BME280;55907;50.806;12.882;2023-01-13T09:11:57;966.2;;;7.7;82.8
68873;BME280;55907;50.806;12.882;2023-01-13T09:17:59;966.3;;;7.4;84.5
68873;BME280;55907;50.806;12.882;2023-01-13T09:21:00;966.4;;;7.4;84.4
68873;BME280;55907;50.806;12.882;2023-01-13T09:24:02;966.5;;;7.5;83.9
68873;BME280;55907;50.806;12.882;2023-01-13T09:27:03;966.7;;;7.5;83.7
68873;BME280;55907;50.806;12.882;2023-01-13T09:30:06;966.7;;;7.3;84.0
68873;BME280;55907;50.806;12.882;2023-01-13T09:33:06;966.6;;;7.3;84.1
68873;BME280;55907;50.806;12.882;2023-01-13T09:33:31;unavailable;;;unavailable;unavailable
68873;BME280;55907;50.806;12.882;2023-01-13T09:37:05;966.7;;;7.2;84.8
68873;BME280;55907;50.806;12.882;2023-01-13T09:38:31;unavailable;;;unavailable;unavailable
68873;BME280;55907;50.806;12.882;2023-01-13T09:40:13;966.6;;;7.2;85.3
68873;BME280;55907;50.806;12.882;2023-01-13T09:40:48;unavailable;;;unavailable;unavailable
68873;BME280;55907;50.806;12.882;2023-01-13T09:40:53;966.6;;;7.2;85.3
68873;BME280;55907;50.806;12.882;2023-01-13T09:42:17;966.6;;;7.2;84.9
68873;BME280;55907;50.806;12.882;2023-01-13T09:45:15;966.5;;;7.2;84.6
68873;BME280;55907;50.806;12.882;2023-01-13T09:46:22;unavailable;;;unavailable;unavailable
68873;BME280;55907;50.806;12.882;2023-01-13T09:46:57;966.5;;;7.2;85.3
68873;BME280;55907;50.806;12.882;2023-01-13T09:48:17;966.5;;;7.3;83.9
68873;BME280;55907;50.806;12.882;2023-01-13T09:51:20;966.4;;;7.3;83.8
68873;BME280;55907;50.806;12.882;2023-01-13T09:54:24;966.3;;;7.2;84.2
68873;BME280;55907;50.806;12.882;2023-01-13T09:57:20;966.2;;;7.3;83.6
68873;BME280;55907;50.806;12.882;2023-01-13T09:59:00;unavailable;;;unavailable;unavailable
68873;BME280;55907;50.806;12.882;2023-01-13T09:59:01;unavailable;;;7.3;unavailable
68873;BME280;55907;50.806;12.882;2023-01-13T10:00:26;966.2;;;7.3;83.1
68873;BME280;55907;50.806;12.882;2023-01-13T10:00:38;966.2;;;7.3;83.1
68873;BME280;55907;50.806;12.882;2023-01-13T10:01:22;966.2;;;7.3;82.5
68873;BME280;55907;50.806;12.882;2023-01-13T10:02:27;unavailable;;;unavailable;unavailable
68873;BME280;55907;50.806;12.882;2023-01-13T10:02:38;unavailable;;;unavailable;unavailable
68873;BME280;55907;50.806;12.882;2023-01-13T10:03:06;unavailable;;;unavailable;unavailable
68873;BME280;55907;50.806;12.882;2023-01-13T10:04:24;unavailable;;;unavailable;unavailable
68873;BME280;55907;50.806;12.882;2023-01-13T10:05:13;unavailable;;;unavailable;unavailable
68873;BME280;55907;50.806;12.882;2023-01-13T10:13:37;unavailable;;;unavailable;unavailable
68873;BME280;55907;50.806;12.882;2023-01-13T10:15:12;unavailable;;;unavailable;unavailable
68873;BME280;55907;50.806;12.882;2023-01-13T10:15:48;965.9;;;7.4;81.4
68873;BME280;55907;50.806;12.882;2023-01-13T10:16:15;unavailable;;;unavailable;unavailable
68873;BME280;55907;50.806;12.882;2023-01-13T10:18:32;unavailable;;;7.5;unavailable
68873;BME280;55907;50.806;12.882;2023-01-13T10:18:43;unavailable;;;unavailable;unavailable
68873;BME280;55907;50.806;12.882;2023-01-13T10:22:09;965.9;;;7.7;81.0
68873;BME280;55907;50.806;12.882;2023-01-13T10:22:59;unavailable;;;unavailable;unavailable
68873;BME280;55907;50.806;12.882;2023-01-13T10:27:32;965.9;;;7.8;81.0
68873;BME280;55907;50.806;12.882;2023-01-13T10:27:35;965.9;;;7.8;81.0
68873;BME280;55907;50.806;12.882;2023-01-13T10:28:25;unavailable;;;unavailable;unavailable
68873;BME280;55907;50.806;12.882;2023-01-13T10:28:29;965.8;;;8.0;80.6
68873;BME280;55907;50.806;12.882;2023-01-13T10:29:27;unavailable;;;unavailable;unavailable
68873;BME280;55907;50.806;12.882;2023-01-13T10:30:10;965.8;;;8.1;80.8
68873;BME280;55907;50.806;12.882;2023-01-13T10:30:25;unavailable;;;unavailable;unavailable
68873;BME280;55907;50.806;12.882;2023-01-13T10:30:34;965.8;;;8.1;80.8
68873;BME280;55907;50.806;12.882;2023-01-13T10:32:18;unavailable;;;unavailable;unavailable
68873;BME280;55907;50.806;12.882;2023-01-13T10:33:32;965.8;;;8.4;80.6
68873;BME280;55907;50.806;12.882;2023-01-13T10:33:36;965.8;;;8.4;80.6
68873;BME280;55907;50.806;12.882;2023-01-13T10:34:02;unavailable;;;unavailable;unavailable
68873;BME280;55907;50.806;12.882;2023-01-13T10:34:08;965.9;;;8.4;79.9
68873;BME280;55907;50.806;12.882;2023-01-13T10:35:14;unavailable;;;unavailable;unavailable
68873;BME280;55907;50.806;12.882;2023-01-13T10:35:53;965.9;;;8.4;80.1
68873;BME280;55907;50.806;12.882;2023-01-13T10:36:45;965.9;;;8.3;80.6
68873;BME280;55907;50.806;12.882;2023-01-13T10:39:41;966.0;;;8.2;81.3
68873;BME280;55907;50.806;12.882;2023-01-13T10:40:17;unavailable;;;unavailable;unavailable
68873;BME280;55907;50.806;12.882;2023-01-13T10:40:34;965.9;;;8.2;80.8
68873;BME280;55907;50.806;12.882;2023-01-13T10:42:41;965.9;;;8.0;81.4
68873;BME280;55907;50.806;12.882;2023-01-13T10:45:51;965.9;;;8.0;81.8
68873;BME280;55907;50.806;12.882;2023-01-13T10:48:52;966.0;;;7.9;82.3
68873;BME280;55907;50.806;12.882;2023-01-13T10:51:46;966.1;;;7.9;81.1
68873;BME280;55907;50.806;12.882;2023-01-13T10:54:50;966.0;;;8.0;80.9
68873;BME280;55907;50.806;12.882;2023-01-13T10:57:14;966.2;;;8.0;79.2
68873;BME280;55907;50.806;12.882;2023-01-13T11:00:58;966.1;;;8.0;79.4
68873;BME280;55907;50.806;12.882;2023-01-13T11:06:53;966.2;;;8.0;78.4
68873;BME280;55907;50.806;12.882;2023-01-13T11:10:16;966.2;;;8.1;78.5
68873;BME280;55907;50.806;12.882;2023-01-13T11:12:58;966.2;;;8.0;78.4
68873;BME280;55907;50.806;12.882;2023-01-13T11:16:00;966.3;;;7.9;77.5
68873;BME280;55907;50.806;12.882;2023-01-13T11:19:03;966.3;;;8.0;77.6
68873;BME280;55907;50.806;12.882;2023-01-13T11:22:03;966.2;;;8.1;77.8
68873;BME280;55907;50.806;12.882;2023-01-13T11:25:04;966.2;;;8.0;77.8
68873;BME280;55907;50.806;12.882;2023-01-13T11:28:14;965.4;;;8.0;77.1
68873;BME280;55907;50.806;12.882;2023-01-13T11:31:09;966.0;;;7.9;77.8
68873;BME280;55907;50.806;12.882;2023-01-13T11:34:07;unavailable;;;unavailable;unavailable
68873;BME280;55907;50.806;12.882;2023-01-13T11:35:16;965.8;;;7.9;77.6
68873;BME280;55907;50.806;12.882;2023-01-13T11:37:15;966.0;;;8.0;77.4
68873;BME280;55907;50.806;12.882;2023-01-13T11:40:15;966.0;;;8.0;77.0
68873;BME280;55907;50.806;12.882;2023-01-13T11:43:16;965.9;;;8.1;76.9
68873;BME280;55907;50.806;12.882;2023-01-13T11:45:45;unavailable;;;unavailable;unavailable
68873;BME280;55907;50.806;12.882;2023-01-13T11:58:13;966.1;;;9.9;70.2
68873;BME280;55907;50.806;12.882;2023-01-13T11:58:52;unavailable;;;unavailable;unavailable
68873;BME280;55907;50.806;12.882;2023-01-13T11:59:45;966.2;;;9.8;70.2
68873;BME280;55907;50.806;12.882;2023-01-13T12:01:33;unavailable;;;unavailable;unavailable
68873;BME280;55907;50.806;12.882;2023-01-13T12:05:36;966.2;;;9.3;71.5
68873;BME280;55907;50.806;12.882;2023-01-13T12:07:33;966.3;;;9.0;71.8
68873;BME280;55907;50.806;12.882;2023-01-13T12:10:34;966.3;;;8.9;72.4
68873;BME280;55907;50.806;12.882;2023-01-13T12:12:35;966.2;;;8.9;72.7
68873;BME280;55907;50.806;12.882;2023-01-13T12:16:28;966.2;;;8.7;72.8
68873;BME280;55907;50.806;12.882;2023-01-13T12:19:30;966.3;;;8.6;73.2
68873;BME280;55907;50.806;12.882;2023-01-13T12:22:32;966.3;;;8.5;73.4
68873;BME280;55907;50.806;12.882;2023-01-13T12:25:35;966.3;;;8.8;71.9
68873;BME280;55907;50.806;12.882;2023-01-13T12:28:42;966.3;;;9.7;70.5
68873;BME280;55907;50.806;12.882;2023-01-13T12:31:37;966.3;;;10.2;67.4
68873;BME280;55907;50.806;12.882;2023-01-13T12:34:45;966.3;;;10.3;67.1
68873;BME280;55907;50.806;12.882;2023-01-13T12:40:47;966.4;;;9.9;68.5
68873;BME280;55907;50.806;12.882;2023-01-13T12:43:45;966.3;;;9.9;67.6
68873;BME280;55907;50.806;12.882;2023-01-13T12:46:45;966.3;;;9.8;67.6
68873;BME280;55907;50.806;12.882;2023-01-13T12:49:44;966.3;;;9.7;68.0
68873;BME280;55907;50.806;12.882;2023-01-13T12:52:46;966.4;;;10.0;67.6
68873;BME280;55907;50.806;12.882;2023-01-13T12:55:50;966.3;;;9.9;66.6
68873;BME280;55907;50.806;12.882;2023-01-13T12:58:49;966.2;;;9.9;67.3
68873;BME280;55907;50.806;12.882;2023-01-13T13:01:36;unavailable;;;unavailable;unavailable
68873;BME280;55907;50.806;12.882;2023-01-13T13:01:37;966.3;;;10.0;67.2
68873;BME280;55907;50.806;12.882;2023-01-13T13:01:51;966.3;;;10.0;67.2
68873;BME280;55907;50.806;12.882;2023-01-13T13:04:53;966.3;;;9.9;66.6
68873;BME280;55907;50.806;12.882;2023-01-13T13:10:59;966.2;;;9.8;66.5
68873;BME280;55907;50.806;12.882;2023-01-13T13:13:56;966.2;;;9.8;66.8
68873;BME280;55907;50.806;12.882;2023-01-13T13:16:57;966.2;;;9.6;67.6
68873;BME280;55907;50.806;12.882;2023-01-13T13:19:59;966.1;;;9.8;67.6
68873;BME280;55907;50.806;12.882;2023-01-13T13:23:00;966.1;;;9.7;67.3
68873;BME280;55907;50.806;12.882;2023-01-13T13:26:10;966.1;;;9.6;68.1
68873;BME280;55907;50.806;12.882;2023-01-13T13:29:10;966.0;;;9.6;68.2
68873;BME280;55907;50.806;12.882;2023-01-13T13:32:14;966.0;;;9.6;67.7
68873;BME280;55907;50.806;12.882;2023-01-13T13:35:20;966.0;;;9.4;67.7
68873;BME280;55907;50.806;12.882;2023-01-13T13:38:17;966.0;;;9.5;68.0
68873;BME280;55907;50.806;12.882;2023-01-13T13:41:12;966.0;;;9.5;67.9
68873;BME280;55907;50.806;12.882;2023-01-13T13:44:13;966.0;;;9.5;67.5
68873;BME280;55907;50.806;12.882;2023-01-13T13:47:12;966.1;;;9.4;67.4
68873;BME280;55907;50.806;12.882;2023-01-13T13:48:22;unavailable;;;unavailable;unavailable
68873;BME280;55907;50.806;12.882;2023-01-13T13:51:46;966.1;;;9.3;67.7
68873;BME280;55907;50.806;12.882;2023-01-13T13:53:17;966.2;;;9.3;68.1
68873;BME280;55907;50.806;12.882;2023-01-13T13:56:20;966.2;;;9.3;68.6
68873;BME280;55907;50.806;12.882;2023-01-13T14:02:27;966.4;;;9.1;68.3
68873;BME280;55907;50.806;12.882;2023-01-13T14:05:23;966.4;;;9.1;68.6
68873;BME280;55907;50.806;12.882;2023-01-13T14:08:23;966.4;;;9.1;68.8
68873;BME280;55907;50.806;12.882;2023-01-13T14:11:26;966.4;;;9.1;68.6
68873;BME280;55907;50.806;12.882;2023-01-13T14:14:26;966.4;;;8.9;68.4
68873;BME280;55907;50.806;12.882;2023-01-13T14:17:29;966.4;;;8.7;68.6
68873;BME280;55907;50.806;12.882;2023-01-13T14:20:29;966.5;;;8.6;69.2
68873;BME280;55907;50.806;12.882;2023-01-13T14:23:32;966.7;;;8.5;69.3
68873;BME280;55907;50.806;12.882;2023-01-13T14:26:32;966.8;;;8.5;69.3
68873;BME280;55907;50.806;12.882;2023-01-13T14:29:33;966.9;;;8.6;68.5
68873;BME280;55907;50.806;12.882;2023-01-13T14:32:35;966.9;;;8.6;67.8
68873;BME280;55907;50.806;12.882;2023-01-13T14:35:36;966.9;;;8.6;67.9
68873;BME280;55907;50.806;12.882;2023-01-13T14:38:38;966.9;;;8.6;67.8
68873;BME280;55907;50.806;12.882;2023-01-13T14:41:44;966.9;;;8.6;67.3
68873;BME280;55907;50.806;12.882;2023-01-13T14:44:43;966.9;;;8.6;67.9
68873;BME280;55907;50.806;12.882;2023-01-13T14:47:49;967.0;;;8.5;67.9
68873;BME280;55907;50.806;12.882;2023-01-13T14:50:45;967.0;;;8.3;68.2
68873;BME280;55907;50.806;12.882;2023-01-13T14:56:49;967.0;;;8.1;69.1
68873;BME280;55907;50.806;12.882;2023-01-13T14:59:54;967.2;;;8.1;69.1
68873;BME280;55907;50.806;12.882;2023-01-13T15:03:03;967.2;;;8.0;69.3
68873;BME280;55907;50.806;12.882;2023-01-13T15:05:53;967.2;;;8.0;69.6
68873;BME280;55907;50.806;12.882;2023-01-13T15:11:54;967.2;;;7.8;70.2
68873;BME280;55907;50.806;12.882;2023-01-13T15:14:56;967.4;;;7.8;70.2
68873;BME280;55907;50.806;12.882;2023-01-13T15:17:58;967.4;;;7.8;70.3
68873;BME280;55907;50.806;12.882;2023-01-13T15:20:59;967.4;;;7.8;70.5
68873;BME280;55907;50.806;12.882;2023-01-13T15:24:00;967.5;;;7.8;70.1
68873;BME280;55907;50.806;12.882;2023-01-13T15:27:13;967.5;;;7.9;69.8
68873;BME280;55907;50.806;12.882;2023-01-13T15:30:12;967.6;;;7.9;69.6
68873;BME280;55907;50.806;12.882;2023-01-13T15:33:05;967.7;;;7.9;69.6
68873;BME280;55907;50.806;12.882;2023-01-13T15:36:18;967.6;;;7.8;69.4
68873;BME280;55907;50.806;12.882;2023-01-13T15:39:10;967.6;;;7.7;69.3
68873;BME280;55907;50.806;12.882;2023-01-13T15:42:10;967.7;;;7.6;69.2
68873;BME280;55907;50.806;12.882;2023-01-13T15:45:12;967.6;;;7.6;69.0
68873;BME280;55907;50.806;12.882;2023-01-13T15:48:12;967.6;;;7.5;68.7
68873;BME280;55907;50.806;12.882;2023-01-13T15:51:14;967.7;;;7.5;69.0
68873;BME280;55907;50.806;12.882;2023-01-13T15:54:15;967.7;;;7.4;69.3
68873;BME280;55907;50.806;12.882;2023-01-13T15:57:20;967.7;;;7.3;69.3
68873;BME280;55907;50.806;12.882;2023-01-13T16:00:19;967.8;;;7.2;69.5
68873;BME280;55907;50.806;12.882;2023-01-13T16:03:20;967.7;;;7.1;69.9
68873;BME280;55907;50.806;12.882;2023-01-13T16:06:26;967.6;;;6.9;70.4
68873;BME280;55907;50.806;12.882;2023-01-13T16:09:23;967.8;;;6.8;69.8
68873;BME280;55907;50.806;12.882;2023-01-13T16:15:26;967.8;;;6.7;68.8
68873;BME280;55907;50.806;12.882;2023-01-13T16:18:28;967.7;;;6.6;68.6